METAR Data
IDs: Format: Raw Decoded Include TAF

Data at: 1746 UTC 25 Mar 2019

KLHB 251735Z AUTO 34004KT 10SM SCT020 SCT055 23/19 A3016 RMK AO2 T02300193
KLHB 251715Z AUTO 36005KT 10SM OVC020 22/19 A3016 RMK AO2 T02150190
KLHB 251655Z AUTO 01009G14KT 10SM BKN015 OVC022 21/19 A3016 RMK AO2 T02100190
KLHB 251635Z AUTO 34011KT 10SM BKN011 OVC022 21/19 A3016 RMK AO2 T02090191
KLHB 251615Z AUTO 31008KT 10SM BKN011 OVC024 21/20 A3015 RMK AO2 T02120203
KLHB 251555Z AUTO 28006KT 10SM SCT010 SCT015 OVC026 22/21 A3015 RMK AO2 T02210208
KLHB 251535Z AUTO 25003KT 10SM OVC010 21/21 A3014 RMK AO2 T02110207
KLHB 251515Z AUTO 23003KT 10SM OVC008 21/20 A3014 RMK AO2 T02070203
KLHB 251455Z AUTO 00000KT 7SM BKN006 OVC010 21/20 A3013 RMK AO2 T02050204
KLHB 251435Z AUTO 18003KT 7SM SCT005 BKN008 OVC039 20/20 A3013 RMK AO2 T02040203
KLHB 251415Z AUTO 15003KT 5SM BR SCT010 BKN035 OVC041 20/20 A3011 RMK AO2 T01980198
KLHB 251355Z AUTO 00000KT 3SM -RA SCT011 BKN017 OVC023 20/20 A3011 RMK AO2 T01950195
KLHB 251335Z AUTO 00000KT 3SM -RA SCT013 BKN018 OVC023 20/20 A3010 RMK AO2 T01950195
KLHB 251315Z AUTO 00000KT 5SM BR SCT015 BKN020 OVC035 20/20 A3010 RMK AO2 T01960195
KLHB 251255Z AUTO 00000KT 4SM BR BKN015 OVC021 20/20 A3009 RMK AO2 T01960195
KLHB 251235Z AUTO 00000KT 7SM OVC017 20/19 A3008 RMK AO2 LTG DSNT NE T01990193
KLHB 251215Z AUTO 00000KT 10SM OVC017 20/19 A3007 RMK AO2 T01960193
KLHB 251155Z AUTO 00000KT 10SM OVC017 20/19 A3007 RMK AO2 T02020193 10206 20200
KLHB 251135Z AUTO 00000KT 10SM OVC017 20/19 A3006 RMK AO2 T02010192
KLHB 251115Z AUTO 00000KT 10SM OVC017 20/19 A3005 RMK AO2 T02020192
KLHB 251055Z AUTO 00000KT 10SM OVC017 20/19 A3005 RMK AO2 T02030192
KLHB 251035Z AUTO 00000KT 10SM OVC017 20/19 A3005 RMK AO2 T02030192
KLHB 251015Z AUTO 00000KT 10SM OVC017 21/19 A3004 RMK AO2 T02050192
KLHB 250955Z AUTO 22003KT 10SM OVC017 21/19 A3004 RMK AO2 T02050192
KLHB 250935Z AUTO 21007KT 10SM OVC015 21/19 A3004 RMK AO2 T02060192
KLHB 250915Z AUTO 19009KT 10SM OVC013 21/19 A3003 RMK AO2 T02050191
KLHB 250855Z AUTO 20013G18KT 10SM OVC013 21/19 A3003 RMK AO2 T02050192
KLHB 250835Z AUTO 19011G15KT 10SM OVC015 21/19 A3003 RMK AO2 T02060193
KLHB 250815Z AUTO 19009KT 10SM OVC015 21/19 A3004 RMK AO2 LTG DSNT N T02050192
KLHB 250755Z AUTO 18011G16KT 10SM OVC015 21/19 A3004 RMK AO2 LTG DSNT N T02050192
KLHB 250735Z AUTO 18013G17KT 10SM OVC015 21/19 A3005 RMK AO2 T02050193
KLHB 250715Z AUTO 17009G16KT 10SM OVC013 21/19 A3005 RMK AO2 T02050193
KLHB 250655Z AUTO 17012G18KT 10SM OVC013 20/19 A3004 RMK AO2 T02020193
KLHB 250635Z AUTO 17011G17KT 10SM OVC013 21/20 A3005 RMK AO2 T02050195
KLHB 250615Z AUTO 17013G21KT 10SM OVC013 20/20 A3005 RMK AO2 T02040195
KLHB 250555Z AUTO 17011G15KT 10SM BKN013 OVC047 20/20 A3005 RMK AO2 LTG DSNT NW T02010195 10258 20200 402740165
KLHB 250535Z AUTO 16009KT 10SM SCT013 OVC047 20/20 A3006 RMK AO2 T02000195
KLHB 250515Z AUTO 15008KT 10SM BKN013 OVC049 20/19 A3006 RMK AO2 T02000193
KLHB 250455Z AUTO 15007KT 10SM BKN049 20/19 A3006 RMK AO2 T02000192
KLHB 250435Z AUTO 15007KT 10SM CLR 20/19 A3006 RMK AO2 T02020192
KLHB 250415Z AUTO 15007KT 10SM CLR 21/19 A3006 RMK AO2 T02050192
KLHB 250355Z AUTO 15007KT 10SM CLR 21/19 A3006 RMK AO2 T02080192
KLHB 250335Z AUTO 15008KT 10SM CLR 21/19 A3005 RMK AO2 T02110192
KLHB 250315Z AUTO 15009G14KT 10SM CLR 22/19 A3004 RMK AO2 T02150192
KLHB 250255Z AUTO 15009KT 10SM CLR 22/19 A3003 RMK AO2 T02200192
KLHB 250235Z AUTO 15008KT 10SM CLR 23/19 A3002 RMK AO2 T02250192
KLHB 250215Z AUTO 15005KT 10SM SCT041 22/19 A3002 RMK AO2 T02200190
KLHB 250155Z AUTO 16006KT 10SM CLR 22/19 A3001 RMK AO2 T02200190
KLHB 250135Z AUTO 16007KT 10SM CLR 23/19 A3000 RMK AO2 T02300191
KLHB 250115Z AUTO 15006KT 10SM CLR 24/19 A2999 RMK AO2 T02350191
KLHB 250055Z AUTO 16006KT 10SM SCT045 SCT050 24/19 A2998 RMK AO2 T02420190
KLHB 250035Z AUTO 15007KT 10SM SCT045 BKN050 25/19 A2998 RMK AO2 T02520190
KLHB 250015Z AUTO 16005KT 10SM SCT045 SCT060 26/19 A2999 RMK AO2 T02560190
KLHB 242355Z AUTO 16008KT 10SM SCT048 BKN060 26/19 A2999 RMK AO2 T02570189 10274 20230
KLHB 242335Z AUTO 15007KT 10SM SCT048 BKN060 26/19 A2999 RMK AO2 T02600186
KLHB 242315Z AUTO 16011KT 10SM BKN048 BKN050 27/19 A2999 RMK AO2 T02710188
KLHB 242255Z AUTO 16009KT 10SM SCT050 BKN055 27/19 A3000 RMK AO2 T02680187
KLHB 242235Z AUTO 15009KT 10SM BKN048 BKN055 27/19 A3000 RMK AO2 T02740190
KLHB 242215Z AUTO 19009KT 10SM BKN047 26/18 A3001 RMK AO2 T02640184
KLHB 242155Z AUTO 16011KT 10SM BKN047 27/19 A3001 RMK AO2 T02720187
KLHB 242135Z AUTO 18008G15KT 10SM BKN049 26/18 A3002 RMK AO2 T02640183
KLHB 242115Z AUTO 19006G15KT 10SM SCT042 OVC049 26/18 A3002 RMK AO2 T02550184
KLHB 242055Z AUTO 17009G14KT 10SM SCT037 SCT043 BKN049 26/19 A3003 RMK AO2 T02590190
KLHB 242035Z AUTO 19008KT 10SM BKN049 26/19 A3004 RMK AO2 T02590194
KLHB 242015Z AUTO 16009KT 10SM SCT036 OVC047 25/19 A3005 RMK AO2 T02500191
KLHB 241955Z AUTO 17010KT 10SM SCT034 OVC045 25/19 A3005 RMK AO2 T02470190
KLHB 241935Z AUTO 16009G16KT 10SM BKN032 OVC043 24/19 A3006 RMK AO2 T02440187
KLHB 241915Z AUTO 16011KT 10SM SCT034 OVC041 25/19 A3006 RMK AO2 T02460190
KLHB 241855Z AUTO 17011G15KT 10SM OVC034 25/19 A3007 RMK AO2 T02450188
KLHB 241835Z AUTO 17009G16KT 10SM BKN030 OVC037 24/19 A3008 RMK AO2 T02410187
KLHB 241815Z AUTO 17010G15KT 10SM OVC032 23/18 A3009 RMK AO2 T02300183
KLHB 241755Z AUTO 16011G16KT 10SM SCT026 OVC034 23/19 A3009 RMK AO2 T02340187 10238 20165
KLHB 241735Z AUTO 17011KT 10SM BKN028 BKN032 24/19 A3010 RMK AO2 T02350188
KLHB 241715Z AUTO 17014G20KT 10SM BKN024 23/19 A3010 RMK AO2 T02270186
KLHB 241655Z AUTO 17010G15KT 10SM OVC021 23/19 A3010 RMK AO2 T02270189
KLHB 241635Z AUTO 17010G15KT 10SM OVC021 22/19 A3011 RMK AO2 T02240187
KLHB 241615Z AUTO 18008KT 10SM OVC021 21/19 A3012 RMK AO2 T02100186
KLHB 241555Z AUTO 17007KT 10SM SCT014 OVC022 21/19 A3013 RMK AO2 T02060188
KLHB 241535Z AUTO 16007KT 10SM SCT012 OVC022 20/19 A3013 RMK AO2 T01980185
KLHB 241515Z AUTO 16005KT 10SM SCT010 OVC020 19/18 A3013 RMK AO2 T01880181
KLHB 241455Z AUTO 15006KT 10SM SCT010 OVC020 18/18 A3013 RMK AO2 T01830177
KLHB 241435Z AUTO 15006KT 10SM OVC020 18/18 A3012 RMK AO2 T01800176
KLHB 241415Z AUTO 15006KT 10SM SCT013 OVC020 18/17 A3011 RMK AO2 T01770174
KLHB 241355Z AUTO 14005KT 10SM OVC024 18/17 A3011 RMK AO2 T01750171
KLHB 241335Z AUTO 15006KT 10SM BKN024 OVC029 17/17 A3010 RMK AO2 T01720170
KLHB 241315Z AUTO 15006KT 10SM SCT010 OVC030 17/17 A3010 RMK AO2 T01710170
KLHB 241255Z AUTO 16006KT 10SM BKN010 BKN030 OVC041 17/17 A3009 RMK AO2 T01680167
KLHB 241235Z AUTO 15006KT 10SM BKN010 BKN033 OVC041 17/17 A3009 RMK AO2 T01670166
KLHB 241215Z AUTO 14006KT 10SM BKN010 BKN014 OVC042 17/17 A3008 RMK AO2 T01660165
KLHB 241155Z AUTO 14005KT 10SM SCT011 BKN035 OVC042 17/16 A3008 RMK AO2 T01650163 10175 20165
KLHB 241135Z AUTO 13005KT 10SM BKN011 BKN016 OVC021 17/16 A3008 RMK AO2 T01650161
KLHB 241115Z AUTO 13004KT 10SM BKN011 OVC023 17/16 A3008 RMK AO2 T01670162
KLHB 241055Z AUTO 13004KT 10SM OVC023 17/16 A3009 RMK AO2 T01670161
KLHB 241035Z AUTO 13005KT 10SM SCT012 OVC023 17/16 A3008 RMK AO2 T01660160
KLHB 241015Z AUTO 13004KT 10SM OVC012 17/16 A3008 RMK AO2 T01650160
KLHB 240955Z AUTO 13004KT 10SM BKN016 OVC024 17/16 A3008 RMK AO2 T01660160
KLHB 240935Z AUTO 13003KT 10SM OVC021 17/16 A3008 RMK AO2 T01660160
KLHB 240915Z AUTO 12003KT 10SM SCT017 OVC026 17/16 A3008 RMK AO2 T01660160
KLHB 240855Z AUTO 13003KT 10SM SCT019 OVC028 17/16 A3009 RMK AO2 T01660159
KLHB 240835Z AUTO 15005KT 10SM BKN021 OVC028 17/16 A3009 RMK AO2 T01650159
KLHB 240815Z AUTO 17005KT 10SM OVC023 17/16 A3009 RMK AO2 T01650158
KLHB 240755Z AUTO 14007KT 10SM OVC021 17/16 A3008 RMK AO2 T01650157
KLHB 240735Z AUTO 13005KT 10SM OVC021 17/16 A3008 RMK AO2 T01650156
KLHB 240715Z AUTO 13004KT 10SM OVC021 17/16 A3009 RMK AO2 T01660157
KLHB 240655Z AUTO 14005KT 10SM BKN021 17/16 A3009 RMK AO2 T01650156
KLHB 240635Z AUTO 13006KT 10SM CLR 17/16 A3009 RMK AO2 T01680157
KLHB 240615Z AUTO 14005KT 10SM BKN033 17/16 A3010 RMK AO2 T01710158
KLHB 240555Z AUTO 13004KT 10SM SCT020 OVC035 18/16 A3009 RMK AO2 T01750160 10222 20175 402340132